createdAt,value
2023-07-03T00:00:18.506Z,37.24
2023-07-03T00:01:18.626Z,37.21
2023-07-03T00:02:20.219Z,37.27
2023-07-03T00:03:18.506Z,37.24
2023-07-03T00:04:18.568Z,37.21
2023-07-03T00:05:18.565Z,37.28
2023-07-03T00:06:18.511Z,37.28
2023-07-03T00:07:18.487Z,37.29
2023-07-03T00:08:18.498Z,37.29
2023-07-03T00:09:18.467Z,37.28
2023-07-03T00:10:18.504Z,37.28
2023-07-03T00:11:18.461Z,37.32
2023-07-03T00:12:18.477Z,37.28
2023-07-03T00:13:18.550Z,37.30
2023-07-03T00:14:18.460Z,37.31
2023-07-03T00:15:18.432Z,37.30
2023-07-03T00:16:18.492Z,37.31
2023-07-03T00:17:18.461Z,37.40
2023-07-03T00:18:18.433Z,37.33
2023-07-03T00:19:18.539Z,37.29
2023-07-03T00:20:18.417Z,37.32
2023-07-03T00:21:18.386Z,37.36
2023-07-03T00:22:18.411Z,37.35
2023-07-03T00:23:18.431Z,37.35
2023-07-03T00:24:18.394Z,37.39
2023-07-03T00:25:18.369Z,37.36
2023-07-03T00:26:18.381Z,37.37
2023-07-03T00:27:18.347Z,37.33
2023-07-03T00:28:18.353Z,37.37
2023-07-03T00:29:18.341Z,37.33
2023-07-03T00:30:18.349Z,37.36
2023-07-03T00:31:18.361Z,37.37
2023-07-03T00:32:18.339Z,37.35
2023-07-03T00:33:18.323Z,37.33
2023-07-03T00:34:18.318Z,37.34
2023-07-03T00:35:18.311Z,37.39
2023-07-03T00:36:18.312Z,37.36
2023-07-03T00:37:18.342Z,37.31
2023-07-03T00:38:18.297Z,37.31
2023-07-03T00:39:18.276Z,37.34
2023-07-03T00:40:18.290Z,37.34
2023-07-03T00:41:18.255Z,37.32
2023-07-03T00:42:18.272Z,37.36
2023-07-03T00:43:18.237Z,37.32
2023-07-03T00:44:18.273Z,37.33
2023-07-03T00:45:18.223Z,37.38
2023-07-03T00:46:18.256Z,37.38
2023-07-03T00:47:18.245Z,37.38
2023-07-03T00:48:18.196Z,37.40
2023-07-03T00:49:18.202Z,37.40
2023-07-03T00:50:18.220Z,37.33
2023-07-03T00:51:18.188Z,37.41
2023-07-03T00:52:18.241Z,37.37
2023-07-03T00:53:18.168Z,37.42
2023-07-03T00:54:18.172Z,37.37
2023-07-03T00:55:18.157Z,37.42
2023-07-03T00:56:18.172Z,37.42
2023-07-03T00:57:18.210Z,37.41
2023-07-03T00:58:18.139Z,37.41
2023-07-03T00:59:18.134Z,37.44
2023-07-03T01:00:18.114Z,37.44
2023-07-03T01:01:18.141Z,37.46
2023-07-03T01:02:18.129Z,37.38
2023-07-03T01:03:18.123Z,37.43
2023-07-03T01:04:18.190Z,37.39
2023-07-03T01:05:18.236Z,37.39
2023-07-03T01:06:18.107Z,37.41
2023-07-03T01:07:18.084Z,37.42
2023-07-03T01:08:18.089Z,37.35
2023-07-03T01:09:18.095Z,37.45
2023-07-03T01:10:18.077Z,37.43
2023-07-03T01:11:18.054Z,37.46
2023-07-03T01:12:18.056Z,37.42
2023-07-03T01:13:18.054Z,37.41
2023-07-03T01:14:18.126Z,37.44
2023-07-03T01:15:18.055Z,37.47
2023-07-03T01:16:18.109Z,37.42
2023-07-03T01:17:18.015Z,37.42
2023-07-03T01:18:18.021Z,37.42
2023-07-03T01:19:18.007Z,37.42
2023-07-03T01:20:18.009Z,37.44
2023-07-03T01:21:18.045Z,37.46
2023-07-03T01:22:17.989Z,37.45
2023-07-03T01:23:18.010Z,37.47
2023-07-03T01:24:17.983Z,37.42
2023-07-03T01:25:17.964Z,37.43
2023-07-03T01:26:17.972Z,37.47
2023-07-03T01:27:17.994Z,37.47
2023-07-03T01:28:17.956Z,37.51
2023-07-03T01:29:17.958Z,37.57
2023-07-03T01:30:17.937Z,37.57
2023-07-03T01:31:17.970Z,37.52
2023-07-03T01:32:17.934Z,37.52
2023-07-03T01:33:17.915Z,37.55
2023-07-03T01:34:17.910Z,37.58
2023-07-03T01:35:17.922Z,37.59
2023-07-03T01:36:17.935Z,37.65
2023-07-03T01:37:17.902Z,37.58
2023-07-03T01:38:17.902Z,37.61
2023-07-03T01:39:17.927Z,37.66
2023-07-03T01:40:17.876Z,37.62
2023-07-03T01:41:17.948Z,37.66
2023-07-03T01:42:17.932Z,37.66
2023-07-03T01:43:17.854Z,37.58
2023-07-03T01:44:17.838Z,37.64
2023-07-03T01:45:17.845Z,37.62
2023-07-03T01:46:17.859Z,37.68
2023-07-03T01:47:17.872Z,37.65
2023-07-03T01:48:17.840Z,37.66
2023-07-03T01:49:17.839Z,37.70
2023-07-03T01:50:17.807Z,37.66
2023-07-03T01:51:17.799Z,37.66
2023-07-03T01:52:17.811Z,37.70
2023-07-03T01:53:17.819Z,37.70
2023-07-03T01:54:17.781Z,37.68
2023-07-03T01:55:17.806Z,37.72
2023-07-03T01:56:17.800Z,37.68
2023-07-03T01:57:17.786Z,37.69
2023-07-03T01:58:17.799Z,37.77
2023-07-03T01:59:17.780Z,37.71
2023-07-03T02:00:17.765Z,37.74
2023-07-03T02:01:17.828Z,37.70
2023-07-03T02:02:17.837Z,37.75
2023-07-03T02:03:17.902Z,37.72
2023-07-03T02:04:17.880Z,37.74
2023-07-03T02:05:17.828Z,37.73
2023-07-03T02:06:17.847Z,37.77
2023-07-03T02:07:17.855Z,37.74
2023-07-03T02:08:17.868Z,37.75
2023-07-03T02:09:17.860Z,37.74
2023-07-03T02:10:17.907Z,37.71
2023-07-03T02:11:17.903Z,37.71
2023-07-03T02:12:17.901Z,37.73
2023-07-03T02:13:17.929Z,37.75
2023-07-03T02:14:17.929Z,37.77
2023-07-03T02:15:17.945Z,37.76
2023-07-03T02:16:17.976Z,37.70
2023-07-03T02:17:17.980Z,37.75
2023-07-03T02:18:17.957Z,37.75
2023-07-03T02:19:17.986Z,37.71
2023-07-03T02:20:17.990Z,37.74
2023-07-03T02:21:18.010Z,37.76
2023-07-03T02:22:17.992Z,37.73
2023-07-03T02:23:18.000Z,37.76
2023-07-03T02:24:18.080Z,37.75
2023-07-03T02:25:18.065Z,37.75
2023-07-03T02:26:18.066Z,37.74
2023-07-03T02:27:18.065Z,37.80
2023-07-03T02:28:18.072Z,37.74
2023-07-03T02:29:18.086Z,37.76
2023-07-03T02:30:18.103Z,37.75
2023-07-03T02:31:18.175Z,37.72
2023-07-03T02:32:18.126Z,37.76
2023-07-03T02:33:18.116Z,37.75
2023-07-03T02:34:18.152Z,37.72
2023-07-03T02:35:18.140Z,37.74
2023-07-03T02:36:18.165Z,37.75
2023-07-03T02:37:18.181Z,37.71
2023-07-03T02:38:18.185Z,37.73
2023-07-03T02:39:18.213Z,37.75
2023-07-03T02:40:18.215Z,37.67
2023-07-03T02:41:18.219Z,37.72
2023-07-03T02:42:18.259Z,37.74
2023-07-03T02:43:18.260Z,37.69
2023-07-03T02:44:18.279Z,37.71
2023-07-03T02:45:18.299Z,37.74
2023-07-03T02:46:18.293Z,37.72
2023-07-03T02:47:18.345Z,37.76
2023-07-03T02:48:18.360Z,37.75
2023-07-03T02:49:18.325Z,37.71
2023-07-03T02:50:18.337Z,37.69
2023-07-03T02:51:18.340Z,37.72
2023-07-03T02:52:18.410Z,37.75
2023-07-03T02:53:18.362Z,37.72
2023-07-03T02:54:18.412Z,37.73
2023-07-03T02:55:18.418Z,37.72
2023-07-03T02:56:18.421Z,37.75
2023-07-03T02:57:18.431Z,37.75
2023-07-03T02:58:18.467Z,37.69
2023-07-03T02:59:18.465Z,37.69
2023-07-03T03:00:18.474Z,37.73
2023-07-03T03:01:18.552Z,37.72
2023-07-03T03:02:18.541Z,37.73
2023-07-03T03:03:18.591Z,37.73
2023-07-03T03:04:18.567Z,37.73
2023-07-03T03:05:18.550Z,37.71
2023-07-03T03:06:18.564Z,37.72
2023-07-03T03:07:18.595Z,37.74
2023-07-03T03:08:18.653Z,37.72
2023-07-03T03:09:18.593Z,37.72
2023-07-03T03:10:18.607Z,37.66
2023-07-03T03:11:18.631Z,37.69
2023-07-03T03:12:18.647Z,37.68
2023-07-03T03:13:18.649Z,37.72
2023-07-03T03:14:18.682Z,37.72
2023-07-03T03:15:18.679Z,37.63
2023-07-03T03:16:18.709Z,37.64
2023-07-03T03:17:18.719Z,37.65
2023-07-03T03:18:18.748Z,37.65
2023-07-03T03:19:18.756Z,37.63
2023-07-03T03:20:18.750Z,37.61
2023-07-03T03:21:18.813Z,37.63
2023-07-03T03:22:18.849Z,37.62
2023-07-03T03:23:18.801Z,37.65
2023-07-03T03:24:18.861Z,37.65
2023-07-03T03:25:18.854Z,37.62
2023-07-03T03:26:18.863Z,37.59
2023-07-03T03:27:18.866Z,37.63
2023-07-03T03:28:18.882Z,37.61
2023-07-03T03:29:18.916Z,37.61
2023-07-03T03:30:18.939Z,37.63
2023-07-03T03:31:19.145Z,37.63
2023-07-03T03:32:19.012Z,37.63
2023-07-03T03:33:18.981Z,37.58
2023-07-03T03:34:18.993Z,37.60
2023-07-03T03:35:18.988Z,37.62
2023-07-03T03:36:19.037Z,37.62
2023-07-03T03:37:19.029Z,37.59
2023-07-03T03:38:19.036Z,37.59
2023-07-03T03:39:19.061Z,37.62
2023-07-03T03:40:19.067Z,37.58
2023-07-03T03:41:19.099Z,37.56
2023-07-03T03:42:19.117Z,37.54
2023-07-03T03:43:19.161Z,37.57
2023-07-03T03:44:19.183Z,37.50
2023-07-03T03:45:19.230Z,37.49
2023-07-03T03:46:19.202Z,37.54
2023-07-03T03:47:19.298Z,37.52
2023-07-03T03:48:19.346Z,37.50
2023-07-03T03:49:19.237Z,37.50
2023-07-03T03:50:19.291Z,37.51
2023-07-03T03:51:19.309Z,37.45
2023-07-03T03:52:19.356Z,37.51
2023-07-03T03:53:19.314Z,37.46
2023-07-03T03:54:19.332Z,37.48
2023-07-03T03:55:19.374Z,37.49
2023-07-03T03:56:19.375Z,37.47
2023-07-03T03:57:19.390Z,37.45
2023-07-03T03:58:19.414Z,37.44
2023-07-03T03:59:19.425Z,37.47
2023-07-03T04:00:19.444Z,37.40
2023-07-03T04:01:19.526Z,37.40
2023-07-03T04:02:19.495Z,37.41
2023-07-03T04:03:19.500Z,37.38
2023-07-03T04:04:19.573Z,37.43
2023-07-03T04:05:19.610Z,37.44
2023-07-03T04:06:19.573Z,37.45
2023-07-03T04:07:19.589Z,37.39
2023-07-03T04:08:19.617Z,37.38
2023-07-03T04:09:19.622Z,37.43
2023-07-03T04:10:19.664Z,37.41
2023-07-03T04:11:19.660Z,37.43
2023-07-03T04:12:19.685Z,37.44
2023-07-03T04:13:19.741Z,37.45
2023-07-03T04:14:19.714Z,37.42
2023-07-03T04:15:19.754Z,37.45
2023-07-03T04:16:19.803Z,37.48
2023-07-03T04:17:19.802Z,37.48
2023-07-03T04:18:19.796Z,37.48
2023-07-03T04:19:19.828Z,37.48
2023-07-03T04:20:19.844Z,37.48
2023-07-03T04:21:19.888Z,37.43
2023-07-03T04:22:19.941Z,37.52
2023-07-03T04:23:19.911Z,37.48
2023-07-03T04:24:19.908Z,37.49
2023-07-03T04:25:19.945Z,37.48
2023-07-03T04:26:19.968Z,37.48
2023-07-03T04:27:19.955Z,37.48
2023-07-03T04:28:19.994Z,37.53
2023-07-03T04:29:20.014Z,37.52
2023-07-03T04:30:20.022Z,37.48
2023-07-03T04:31:20.064Z,37.52
2023-07-03T04:32:20.079Z,37.54
2023-07-03T04:33:20.074Z,37.54
2023-07-03T04:34:20.104Z,37.48
2023-07-03T04:35:20.175Z,37.55
2023-07-03T04:36:20.116Z,37.53
2023-07-03T04:37:20.140Z,37.45
2023-07-03T04:38:20.186Z,37.48
2023-07-03T04:39:20.186Z,37.56
2023-07-03T04:40:20.208Z,37.50
2023-07-03T04:41:20.253Z,37.53
2023-07-03T04:42:20.231Z,37.55
2023-07-03T04:43:20.253Z,37.52
2023-07-03T04:44:20.290Z,37.56
2023-07-03T04:45:20.317Z,37.52
2023-07-03T04:46:20.341Z,37.53
2023-07-03T04:47:20.381Z,37.52
2023-07-03T04:48:20.381Z,37.53
2023-07-03T04:49:20.370Z,37.56
2023-07-03T04:50:20.410Z,37.49
2023-07-03T04:51:20.438Z,37.53
2023-07-03T04:52:20.453Z,37.52
2023-07-03T04:53:20.449Z,37.55
2023-07-03T04:54:20.472Z,37.57
2023-07-03T04:55:20.511Z,37.52
2023-07-03T04:56:20.519Z,37.59
2023-07-03T04:57:20.544Z,37.57
2023-07-03T04:58:20.558Z,37.60
2023-07-03T04:59:20.577Z,37.59
2023-07-03T05:00:20.633Z,37.66
2023-07-03T05:01:20.663Z,37.53
2023-07-03T05:02:20.666Z,37.66
2023-07-03T05:03:20.780Z,37.64
2023-07-03T05:04:20.830Z,37.61
2023-07-03T05:05:20.708Z,37.71
2023-07-03T05:06:20.720Z,37.73
2023-07-03T05:07:20.732Z,37.70
2023-07-03T05:08:20.745Z,37.64
2023-07-03T05:09:20.786Z,37.68
2023-07-03T05:10:20.812Z,37.64
2023-07-03T05:11:20.829Z,37.70
2023-07-03T05:12:20.818Z,37.71
2023-07-03T05:13:20.846Z,37.68
2023-07-03T05:14:20.852Z,37.68
2023-07-03T05:15:20.877Z,37.70
2023-07-03T05:16:20.948Z,37.70
2023-07-03T05:17:20.941Z,37.74
2023-07-03T05:18:20.983Z,37.67
2023-07-03T05:19:20.968Z,37.70
2023-07-03T05:20:20.960Z,37.71
2023-07-03T05:21:20.998Z,37.71
2023-07-03T05:22:20.998Z,37.70
2023-07-03T05:23:21.046Z,37.67
2023-07-03T05:24:21.022Z,37.75
2023-07-03T05:25:21.017Z,37.71
2023-07-03T05:26:21.613Z,37.80
2023-07-03T05:27:21.062Z,38.28
2023-07-03T05:28:21.070Z,38.21
2023-07-03T05:29:21.100Z,38.08
2023-07-03T05:30:21.099Z,38.17
2023-07-03T05:31:21.183Z,38.28
2023-07-03T05:32:21.140Z,38.57
2023-07-03T05:33:21.132Z,38.62
2023-07-03T05:34:21.156Z,38.86
2023-07-03T05:35:21.160Z,39.35
2023-07-03T05:36:21.560Z,39.16
2023-07-03T05:37:21.147Z,39.15
2023-07-03T05:38:21.196Z,39.29
2023-07-03T05:39:21.207Z,40.00
2023-07-03T05:40:21.211Z,39.60
2023-07-03T05:41:21.270Z,39.87
2023-07-03T05:42:21.313Z,39.62
2023-07-03T05:43:21.335Z,39.77
2023-07-03T05:44:21.356Z,39.63
2023-07-03T05:45:21.358Z,39.72
2023-07-03T05:46:21.399Z,39.72
2023-07-03T05:47:21.497Z,39.70
2023-07-03T05:48:21.423Z,39.62
2023-07-03T05:49:21.444Z,39.60
2023-07-03T05:50:21.446Z,39.49
2023-07-03T05:51:21.499Z,39.65
2023-07-03T05:52:21.488Z,39.55
2023-07-03T05:53:22.662Z,39.45
2023-07-03T05:54:21.542Z,39.37
2023-07-03T05:55:21.500Z,39.44
2023-07-03T05:56:21.516Z,39.46
2023-07-03T05:57:21.505Z,39.46
2023-07-03T05:58:21.482Z,39.40
2023-07-03T05:59:21.483Z,39.25
2023-07-03T06:00:21.469Z,39.44
2023-07-03T06:01:21.543Z,39.46
2023-07-03T06:02:21.599Z,39.55
2023-07-03T06:03:21.640Z,39.46
2023-07-03T06:04:21.478Z,39.65
2023-07-03T06:05:21.455Z,39.45
2023-07-03T06:06:21.499Z,39.20
2023-07-03T06:07:21.506Z,39.42
2023-07-03T06:08:21.429Z,39.53
2023-07-03T06:09:21.456Z,39.47
2023-07-03T06:10:21.423Z,39.48
2023-07-03T06:11:21.411Z,39.45
2023-07-03T06:12:21.395Z,39.43
2023-07-03T06:13:21.462Z,39.47
2023-07-03T06:14:21.372Z,39.43
2023-07-03T06:15:21.372Z,39.50
2023-07-03T06:16:21.399Z,39.50
2023-07-03T06:17:21.454Z,39.56
2023-07-03T06:18:21.466Z,39.24
2023-07-03T06:19:21.349Z,39.45
2023-07-03T06:20:21.343Z,39.42
2023-07-03T06:21:21.375Z,39.41
2023-07-03T06:22:21.310Z,39.42
2023-07-03T06:23:21.300Z,39.54
2023-07-03T06:24:21.383Z,39.40
2023-07-03T06:25:21.326Z,39.33
2023-07-03T06:26:21.313Z,39.35
2023-07-03T06:27:21.307Z,39.43
2023-07-03T06:28:21.260Z,39.43
2023-07-03T06:29:21.371Z,39.35
2023-07-03T06:30:21.338Z,39.31
2023-07-03T06:31:21.435Z,39.27
2023-07-03T06:32:21.472Z,39.30
2023-07-03T06:33:21.515Z,39.35
2023-07-03T06:34:21.566Z,39.35
2023-07-03T06:35:21.716Z,39.34
2023-07-03T06:36:21.644Z,39.32
2023-07-03T06:37:21.695Z,39.11
2023-07-03T06:38:21.769Z,39.34
2023-07-03T06:39:21.788Z,39.40
2023-07-03T06:40:21.883Z,39.22
2023-07-03T06:41:21.894Z,39.35
2023-07-03T06:42:21.972Z,39.32
2023-07-03T06:43:22.071Z,39.06
2023-07-03T06:44:22.105Z,39.46
2023-07-03T06:45:22.098Z,39.25
2023-07-03T06:46:22.263Z,39.26
2023-07-03T06:47:22.229Z,39.35
2023-07-03T06:48:22.253Z,39.33
2023-07-03T06:49:22.307Z,39.31
2023-07-03T06:50:22.322Z,39.29
2023-07-03T06:51:22.378Z,39.11
2023-07-03T06:52:22.416Z,39.18
2023-07-03T06:53:22.481Z,39.08
2023-07-03T06:54:22.500Z,39.19
2023-07-03T06:55:22.592Z,39.41
2023-07-03T06:56:22.654Z,39.29
2023-07-03T06:57:22.662Z,39.39
2023-07-03T06:58:22.697Z,39.49
2023-07-03T06:59:22.798Z,39.43
2023-07-03T07:00:22.775Z,40.11
2023-07-03T07:01:22.799Z,39.74
2023-07-03T07:02:22.933Z,39.59
2023-07-03T07:03:22.974Z,40.03
2023-07-03T07:04:22.946Z,39.81
2023-07-03T07:05:22.990Z,39.37
2023-07-03T07:06:22.988Z,39.41
2023-07-03T07:07:23.085Z,39.63
2023-07-03T07:08:23.055Z,39.79
2023-07-03T07:09:23.116Z,39.64
2023-07-03T07:10:23.147Z,40.47
2023-07-03T07:11:23.219Z,40.01
2023-07-03T07:12:23.271Z,40.14
2023-07-03T07:13:23.315Z,39.99
2023-07-03T07:14:23.370Z,39.97
2023-07-03T07:15:23.541Z,40.39
2023-07-03T07:16:23.501Z,40.63
2023-07-03T07:17:25.984Z,40.13
2023-07-03T07:18:24.593Z,40.59
2023-07-03T07:19:23.534Z,40.81
2023-07-03T07:20:23.551Z,40.44
2023-07-03T07:21:23.547Z,40.34
2023-07-03T07:22:23.528Z,40.34
2023-07-03T07:23:23.523Z,41.04
2023-07-03T07:24:23.535Z,40.40
2023-07-03T07:25:23.514Z,40.06
2023-07-03T07:26:23.500Z,39.83
2023-07-03T07:27:23.489Z,39.32
2023-07-03T07:28:23.543Z,38.92
2023-07-03T07:29:23.583Z,38.52
2023-07-03T07:30:23.705Z,38.02
2023-07-03T07:31:23.949Z,38.13
2023-07-03T07:32:23.800Z,37.95
2023-07-03T07:33:23.882Z,37.82
2023-07-03T07:34:23.875Z,37.76
2023-07-03T07:35:23.932Z,37.65
2023-07-03T07:36:24.006Z,37.58
2023-07-03T07:37:24.079Z,37.57
2023-07-03T07:38:24.094Z,37.55
2023-07-03T07:39:24.172Z,37.34
2023-07-03T07:40:24.201Z,37.32
2023-07-03T07:41:24.608Z,37.46
2023-07-03T07:42:24.296Z,37.39
2023-07-03T07:43:24.325Z,37.35
2023-07-03T07:44:24.375Z,37.32
2023-07-03T07:45:24.425Z,37.28
2023-07-03T07:46:24.544Z,37.13
2023-07-03T07:47:24.603Z,37.14
2023-07-03T07:48:25.170Z,37.11
2023-07-03T07:49:24.587Z,37.10
2023-07-03T07:50:24.655Z,37.07
2023-07-03T07:51:24.704Z,37.07
2023-07-03T07:52:24.728Z,36.98
2023-07-03T07:53:24.762Z,36.98
2023-07-03T07:54:24.789Z,36.99
2023-07-03T07:55:24.908Z,36.90
2023-07-03T07:56:24.839Z,36.94
2023-07-03T07:57:24.868Z,36.91
2023-07-03T07:58:24.878Z,36.87
2023-07-03T07:59:24.872Z,36.86
2023-07-03T08:00:24.891Z,36.82
2023-07-03T08:01:24.996Z,36.79
2023-07-03T08:02:25.099Z,36.79
2023-07-03T08:03:25.026Z,36.69
2023-07-03T08:04:25.048Z,36.66
2023-07-03T08:05:24.975Z,36.66
2023-07-03T08:06:24.965Z,36.64
2023-07-03T08:07:24.990Z,36.61
2023-07-03T08:08:24.972Z,36.51
2023-07-03T08:09:24.981Z,36.47
2023-07-03T08:10:25.016Z,36.40
2023-07-03T08:11:24.962Z,36.20
2023-07-03T08:12:25.016Z,36.13
2023-07-03T08:13:25.027Z,35.95
2023-07-03T08:14:25.100Z,35.95
2023-07-03T08:15:25.097Z,35.90
2023-07-03T08:16:25.249Z,35.89
2023-07-03T08:17:25.123Z,35.86
2023-07-03T08:18:25.189Z,35.83
2023-07-03T08:19:25.334Z,35.73
2023-07-03T08:20:25.262Z,35.76
2023-07-03T08:21:25.636Z,35.75
2023-07-03T08:22:25.273Z,35.74
2023-07-03T08:23:25.304Z,35.71
2023-07-03T08:24:25.320Z,35.56
2023-07-03T08:25:25.338Z,35.49
2023-07-03T08:26:25.377Z,35.41
2023-07-03T08:27:25.398Z,35.33
2023-07-03T08:28:25.425Z,35.25
2023-07-03T08:29:25.440Z,35.10
2023-07-03T08:30:25.496Z,34.92
2023-07-03T08:31:25.540Z,34.91
2023-07-03T08:32:25.564Z,34.80
2023-07-03T08:33:25.718Z,34.78
2023-07-03T08:34:25.610Z,34.83
2023-07-03T08:37:25.677Z,34.89
2023-07-03T08:38:25.652Z,34.76
2023-07-03T08:39:25.681Z,34.73
2023-07-03T08:40:25.647Z,34.60
2023-07-03T08:41:25.639Z,34.57
2023-07-03T08:42:25.760Z,34.56
2023-07-03T08:43:25.644Z,34.49
2023-07-03T08:44:25.620Z,34.44
2023-07-03T08:45:25.622Z,34.49
2023-07-03T08:46:25.738Z,34.37
2023-07-03T08:47:25.739Z,34.59
2023-07-03T08:48:25.580Z,35.02
2023-07-03T08:49:25.596Z,34.90
2023-07-03T08:50:36.704Z,34.92
2023-07-03T08:51:26.715Z,34.82
2023-07-03T08:52:25.562Z,34.75
2023-07-03T08:53:25.553Z,34.48
2023-07-03T08:54:25.527Z,34.35
2023-07-03T08:55:25.536Z,34.38
2023-07-03T08:56:25.543Z,34.41
2023-07-03T08:57:25.540Z,34.55
2023-07-03T08:58:25.526Z,34.41
2023-07-03T08:59:25.492Z,34.40
2023-07-03T09:00:25.505Z,34.37
2023-07-03T09:01:25.596Z,34.27
2023-07-03T09:02:25.521Z,34.19
2023-07-03T09:03:25.554Z,34.11
2023-07-03T09:04:25.572Z,34.05
2023-07-03T09:05:25.525Z,34.06
2023-07-03T09:06:25.545Z,33.99
2023-07-03T09:07:25.636Z,33.99
2023-07-03T09:08:25.604Z,33.74
2023-07-03T09:09:25.677Z,33.85
2023-07-03T09:10:25.680Z,33.95
2023-07-03T09:11:26.172Z,33.86
2023-07-03T09:12:25.724Z,33.74
2023-07-03T09:13:25.746Z,33.78
2023-07-03T09:14:25.797Z,33.55
2023-07-03T09:15:25.804Z,33.45
2023-07-03T09:16:26.203Z,33.36
2023-07-03T09:17:25.913Z,33.27
2023-07-03T09:18:25.916Z,33.14
2023-07-03T09:19:25.958Z,33.05
2023-07-03T09:20:25.958Z,33.05
2023-07-03T09:21:26.020Z,32.91
2023-07-03T09:22:26.010Z,32.80
2023-07-03T09:23:26.111Z,32.74
2023-07-03T09:24:26.056Z,32.61
2023-07-03T09:25:26.124Z,32.67
2023-07-03T09:26:26.150Z,32.65
2023-07-03T09:27:26.664Z,32.63
2023-07-03T09:28:26.233Z,32.60
2023-07-03T09:29:27.165Z,32.54
2023-07-03T09:30:26.223Z,32.68
2023-07-03T09:31:26.298Z,32.73
2023-07-03T09:32:26.369Z,32.70
2023-07-03T09:33:26.535Z,32.69
2023-07-03T09:34:26.305Z,32.89
2023-07-03T09:35:26.794Z,33.10
2023-07-03T09:36:26.364Z,33.14
2023-07-03T09:37:26.374Z,33.06
2023-07-03T09:38:27.118Z,33.12
2023-07-03T09:39:26.508Z,33.19
2023-07-03T09:40:26.555Z,33.28
2023-07-03T09:41:26.537Z,33.19
2023-07-03T09:42:26.575Z,33.11
2023-07-03T09:43:26.605Z,33.13
2023-07-03T09:44:26.638Z,32.98
2023-07-03T09:45:26.671Z,32.80
2023-07-03T09:46:26.681Z,32.75
2023-07-03T09:47:27.686Z,32.87
2023-07-03T09:48:26.873Z,32.78
2023-07-03T09:49:26.828Z,33.00
2023-07-03T09:50:26.891Z,33.09
2023-07-03T09:51:26.986Z,33.19
2023-07-03T09:52:27.563Z,33.10
2023-07-03T09:53:27.007Z,33.16
2023-07-03T09:54:27.094Z,33.17
2023-07-03T09:55:27.175Z,33.42
2023-07-03T09:56:27.712Z,33.57
2023-07-03T09:57:27.228Z,33.83
2023-07-03T09:58:27.273Z,33.87
2023-07-03T09:59:27.280Z,34.02
2023-07-03T10:00:27.315Z,34.12
2023-07-03T10:06:27.699Z,34.95
2023-07-03T10:07:27.773Z,35.01
2023-07-03T10:08:30.238Z,35.08
2023-07-03T10:11:27.450Z,35.14
2023-07-03T10:12:27.351Z,35.17
2023-07-03T10:13:27.266Z,35.20
2023-07-03T10:14:27.249Z,35.49
2023-07-03T10:15:27.260Z,35.43
2023-07-03T10:16:27.257Z,35.34
2023-07-03T10:17:27.389Z,35.31
2023-07-03T10:18:27.268Z,35.40
2023-07-03T10:19:27.288Z,35.28
2023-07-03T10:20:28.472Z,35.28
2023-07-03T10:21:27.248Z,35.20
2023-07-03T10:22:27.237Z,34.98
2023-07-03T10:23:27.277Z,35.02
2023-07-03T10:24:27.196Z,34.36
2023-07-03T10:25:27.192Z,34.47
2023-07-03T10:26:27.171Z,34.10
2023-07-03T10:27:27.292Z,34.29
2023-07-03T10:28:27.170Z,34.21
2023-07-03T10:29:27.187Z,34.00
2023-07-03T10:30:27.151Z,34.00
2023-07-03T10:31:27.162Z,33.90
2023-07-03T10:32:27.206Z,34.01
2023-07-03T10:33:27.124Z,33.99
2023-07-03T10:34:27.146Z,33.93
2023-07-03T10:35:27.115Z,34.12
2023-07-03T10:36:27.111Z,34.49
2023-07-03T10:37:27.143Z,34.52
2023-07-03T10:38:27.097Z,34.31
2023-07-03T10:39:27.083Z,34.05
2023-07-03T10:40:27.071Z,33.99
2023-07-03T10:41:27.073Z,34.16
2023-07-03T10:42:27.081Z,36.81
2023-07-03T10:43:27.117Z,38.95
2023-07-03T10:44:27.046Z,37.31
2023-07-03T10:45:27.058Z,34.92
2023-07-03T10:46:27.082Z,35.21
2023-07-03T10:47:27.065Z,34.74
2023-07-03T10:48:27.043Z,34.14
2023-07-03T10:49:27.048Z,34.14
2023-07-03T10:50:27.021Z,33.94
2023-07-03T10:51:27.026Z,34.23
2023-07-03T10:52:27.060Z,34.13
2023-07-03T10:53:27.123Z,34.21
2023-07-03T10:54:27.131Z,34.24
2023-07-03T10:55:27.134Z,34.39
2023-07-03T10:56:27.253Z,34.08
2023-07-03T10:57:27.220Z,34.23
2023-07-03T10:58:27.238Z,34.00
2023-07-03T10:59:27.325Z,34.02
2023-07-03T11:00:27.282Z,33.90
2023-07-03T11:01:27.339Z,34.16
2023-07-03T11:02:27.379Z,34.27
2023-07-03T11:03:27.463Z,34.48
2023-07-03T11:04:27.391Z,34.46
2023-07-03T11:05:27.392Z,34.42
2023-07-03T11:06:27.425Z,34.59
2023-07-03T11:07:27.497Z,34.74
2023-07-03T11:08:27.464Z,34.65
2023-07-03T11:09:27.498Z,34.57
2023-07-03T11:10:27.502Z,34.40
2023-07-03T11:11:27.502Z,34.24
2023-07-03T11:12:27.600Z,34.19
2023-07-03T11:13:27.708Z,34.41
2023-07-03T11:14:27.579Z,34.18
2023-07-03T11:15:27.676Z,34.14
2023-07-03T11:16:27.756Z,34.13
2023-07-03T11:17:27.799Z,34.30
2023-07-03T11:20:27.759Z,34.09
2023-07-03T11:23:27.711Z,34.22
2023-07-03T11:24:27.665Z,34.16
2023-07-03T11:25:27.648Z,34.02
2023-07-03T11:28:27.681Z,34.04
2023-07-03T11:29:27.650Z,34.07
2023-07-03T11:30:27.620Z,34.25
2023-07-03T11:31:27.622Z,34.11
2023-07-03T11:32:27.612Z,33.88
2023-07-03T11:36:37.599Z,34.24
2023-07-03T11:37:28.687Z,34.21
2023-07-03T11:40:27.890Z,34.08
2023-07-03T11:43:27.570Z,34.14
2023-07-03T11:44:28.170Z,34.09
2023-07-03T11:45:27.514Z,34.02
2023-07-03T11:46:27.547Z,34.07
2023-07-03T11:47:27.514Z,34.22
2023-07-03T11:48:27.502Z,34.15
2023-07-03T11:49:27.488Z,34.17
2023-07-03T11:50:27.503Z,34.16
2023-07-03T11:51:27.474Z,34.14
2023-07-03T11:52:27.528Z,34.20
2023-07-03T11:53:27.470Z,34.21
2023-07-03T11:54:27.605Z,34.13
2023-07-03T11:55:27.467Z,34.13
2023-07-03T11:56:27.456Z,34.17
2023-07-03T11:57:27.450Z,34.20
2023-07-03T11:58:27.422Z,34.15
2023-07-03T11:59:27.453Z,34.23
2023-07-03T12:00:27.437Z,34.19
2023-07-03T12:01:27.434Z,34.11
2023-07-03T12:02:27.466Z,34.14
2023-07-03T12:03:27.436Z,34.14
2023-07-03T12:04:27.416Z,34.18
2023-07-03T12:05:27.365Z,34.12
2023-07-03T12:06:27.368Z,34.21
2023-07-03T12:07:27.379Z,34.25
2023-07-03T12:08:27.390Z,34.33
2023-07-03T12:09:27.419Z,34.35
2023-07-03T12:10:27.372Z,34.40
2023-07-03T12:11:27.326Z,34.46
2023-07-03T12:12:27.389Z,34.38
2023-07-03T12:13:27.327Z,34.39
2023-07-03T12:14:27.311Z,34.39
2023-07-03T12:15:27.314Z,34.39
2023-07-03T12:16:27.325Z,34.32
2023-07-03T12:17:27.340Z,34.34
2023-07-03T12:18:27.266Z,34.27
2023-07-03T12:19:27.275Z,34.29
2023-07-03T12:20:27.274Z,34.22
2023-07-03T12:21:27.264Z,34.19
2023-07-03T12:22:27.247Z,34.21
2023-07-03T12:23:27.238Z,34.16
2023-07-03T12:24:27.249Z,34.10
2023-07-03T12:25:27.241Z,34.14
2023-07-03T12:26:27.272Z,34.13
2023-07-03T12:27:27.240Z,34.10
2023-07-03T12:28:27.201Z,34.06
2023-07-03T12:29:27.244Z,34.15
2023-07-03T12:30:27.200Z,34.12
2023-07-03T12:31:27.307Z,34.08
2023-07-03T12:32:27.227Z,34.06
2023-07-03T12:33:27.158Z,34.08
2023-07-03T12:34:27.156Z,34.08
2023-07-03T12:35:27.156Z,34.00
2023-07-03T12:36:27.203Z,33.94
2023-07-03T12:37:27.129Z,33.89
2023-07-03T12:38:27.140Z,33.90
2023-07-03T12:39:27.125Z,33.86
2023-07-03T12:40:27.134Z,33.90
2023-07-03T12:41:27.110Z,33.87
2023-07-03T12:42:27.105Z,33.94
2023-07-03T12:43:27.077Z,33.92
2023-07-03T12:44:27.068Z,33.89
2023-07-03T12:45:27.087Z,33.91
2023-07-03T12:46:27.124Z,33.77
2023-07-03T12:47:27.120Z,33.88
2023-07-03T12:48:27.060Z,33.88
2023-07-03T12:49:27.035Z,33.88
2023-07-03T12:50:27.050Z,33.90
2023-07-03T12:51:27.018Z,33.89
2023-07-03T12:52:27.037Z,33.91
2023-07-03T12:53:27.070Z,33.85
2023-07-03T12:54:27.127Z,33.89
2023-07-03T12:55:27.192Z,33.82
2023-07-03T12:56:27.258Z,33.85
2023-07-03T12:57:27.342Z,33.91
2023-07-03T12:58:27.417Z,33.84
2023-07-03T12:59:28.323Z,33.90
2023-07-03T13:00:27.498Z,33.88
2023-07-03T13:01:27.568Z,33.85
2023-07-03T13:02:27.675Z,33.88
2023-07-03T13:03:27.688Z,33.87
2023-07-03T13:04:27.748Z,33.90
2023-07-03T13:05:27.867Z,33.91
2023-07-03T13:06:27.838Z,33.93
2023-07-03T13:07:27.895Z,33.86
2023-07-03T13:08:27.951Z,33.88
2023-07-03T13:09:28.074Z,33.89
2023-07-03T13:10:28.089Z,33.82
2023-07-03T13:11:28.129Z,33.86
2023-07-03T13:12:28.212Z,33.87
2023-07-03T13:13:28.317Z,33.80
2023-07-03T13:14:28.318Z,33.87